Bettles Airport Bettles US
ICAO: PABT
IATA:
Category: Medium
Scheduled Services:

Elevation: 647 ft
TransAlt. 18000 ft.

Airport Communications:
ASOS:135.45
ANCHORAGE CNTR:124.6
CTAF:122.9
FAIRBANKS RDO:122.2
TWEB:116

PABT Zoom In..

If you have problems with the map follow the link
https://www.worldairports.se/pages/airport.php?
ICAO=PABT

Runways:

(A) RW 01 length 5190 ft width 150 ft
LOC 108.70 / hdg 12

(B) RW 19 length 5190 ft width 150 ft
LOC 108.70 / hdg 192

Location; PABT
Day. 14 / Time. 20.53 Zulu
* Altimeter: 29.47
* Temperature: -33° c. 27.4°f.
* Wind from: 350° Speed 03 kn.
Dewpoint: -36° c.
Visibility: 10 Statute Miles.
Clouds: Scattered 3300 ft.

PABT 142053Z 35003KT 10SM SCT033 M33/M36 A2947 RMK AO2 SLP009 T13281356 51011 PNO $


Wind From 350°
Speed 03 kn.

 
 
jpsmedia.com for Web Design worldairports.se 2018   terms of use